createdAt,value
2023-04-15T00:00:49.089Z,68.65
2023-04-15T00:03:57.274Z,69.05
2023-04-15T00:06:59.135Z,68.91
2023-04-15T00:10:02.354Z,67.95
2023-04-15T00:13:06.781Z,69.35
2023-04-15T00:16:11.585Z,70.34
2023-04-15T00:19:25.510Z,69.00
2023-04-15T00:22:29.974Z,69.55
2023-04-15T00:25:31.663Z,68.62
2023-04-15T00:28:35.967Z,67.32
2023-04-15T00:31:38.414Z,63.19
2023-04-15T00:34:39.963Z,62.76
2023-04-15T00:37:48.561Z,60.01
2023-04-15T00:40:50.243Z,58.11
2023-04-15T00:43:52.162Z,63.31
2023-04-15T00:46:54.081Z,64.68
2023-04-15T00:49:56.004Z,65.45
2023-04-15T00:52:58.256Z,62.65
2023-04-15T00:55:59.899Z,63.92
2023-04-15T00:59:09.265Z,64.85
2023-04-15T01:02:11.231Z,66.17
2023-04-15T01:05:14.989Z,68.72
2023-04-15T01:08:31.526Z,69.88
2023-04-15T01:11:36.373Z,69.81
2023-04-15T01:14:41.369Z,71.33
2023-04-15T01:17:43.667Z,71.84
2023-04-15T01:20:48.343Z,72.58
2023-04-15T01:23:52.780Z,73.12
2023-04-15T01:27:23.464Z,73.85
2023-04-15T01:30:27.165Z,74.84
2023-04-15T01:33:39.702Z,75.83
2023-04-15T01:36:43.677Z,75.91
2023-04-15T01:39:45.494Z,76.50
2023-04-15T01:42:47.284Z,76.35
2023-04-15T01:45:50.584Z,74.19
2023-04-15T01:48:52.777Z,72.86
2023-04-15T01:51:57.336Z,76.23
2023-04-15T01:54:58.949Z,71.57
2023-04-15T01:58:01.293Z,69.48
2023-04-15T02:01:04.681Z,66.26
2023-04-15T02:04:07.333Z,65.39
2023-04-15T02:07:08.881Z,67.13
2023-04-15T02:10:19.781Z,68.57
2023-04-15T02:13:29.119Z,69.11
2023-04-15T02:16:38.085Z,66.68
2023-04-15T02:19:40.575Z,65.49
2023-04-15T02:22:48.741Z,64.53
2023-04-15T02:25:53.296Z,66.58
2023-04-15T02:28:56.268Z,68.67
2023-04-15T02:32:00.797Z,70.52
2023-04-15T02:35:04.044Z,70.58
2023-04-15T02:38:06.466Z,70.04
2023-04-15T02:41:09.442Z,71.00
2023-04-15T02:44:13.094Z,70.25
2023-04-15T02:47:15.976Z,70.36
2023-04-15T02:50:18.005Z,65.29
2023-04-15T02:53:20.105Z,64.67
2023-04-15T02:59:41.648Z,67.75
2023-04-15T03:02:50.861Z,68.34
2023-04-15T03:05:52.654Z,69.92
2023-04-15T03:12:19.233Z,69.32
2023-04-15T03:15:21.554Z,70.13
2023-04-15T03:18:26.569Z,71.24
2023-04-15T03:21:31.486Z,71.68
2023-04-15T03:24:39.200Z,72.72
2023-04-15T03:27:41.641Z,73.75
2023-04-15T03:30:59.984Z,73.99
2023-04-15T03:34:02.538Z,73.50
2023-04-15T03:40:21.684Z,75.05
2023-04-15T03:43:26.448Z,74.02
2023-04-15T03:46:28.112Z,74.54
2023-04-15T03:49:38.187Z,74.69
2023-04-15T03:52:42.056Z,73.77
2023-04-15T03:55:54.248Z,73.86
2023-04-15T03:58:55.935Z,74.83
2023-04-15T04:01:57.645Z,75.75
2023-04-15T04:04:59.204Z,75.25
2023-04-15T04:08:00.704Z,75.41
2023-04-15T04:11:04.594Z,75.69
2023-04-15T04:14:08.202Z,75.99
2023-04-15T04:17:09.737Z,77.23
2023-04-15T04:20:17.313Z,77.90
2023-04-15T04:23:21.701Z,78.51
2023-04-15T04:29:49.911Z,79.15
2023-04-15T04:32:57.548Z,76.97
2023-04-15T04:35:59.087Z,76.80
2023-04-15T04:39:01.508Z,78.06
2023-04-15T04:42:04.546Z,78.89
2023-04-15T04:45:09.437Z,79.47
2023-04-15T04:48:11.523Z,79.85
2023-04-15T04:51:13.096Z,79.25
2023-04-15T04:54:16.195Z,79.46
2023-04-15T04:57:17.745Z,79.42
2023-04-15T05:00:19.351Z,78.97
2023-04-15T05:03:22.132Z,78.62
2023-04-15T05:09:42.433Z,78.73
2023-04-15T05:12:45.649Z,78.99
2023-04-15T05:15:47.339Z,78.65
2023-04-15T05:18:50.953Z,78.98
2023-04-15T05:21:55.574Z,78.82
2023-04-15T05:24:57.096Z,79.56
2023-04-15T05:27:58.665Z,79.20
2023-04-15T05:31:00.718Z,78.88
2023-04-15T05:34:02.331Z,78.35
2023-04-15T05:37:04.622Z,78.24
2023-04-15T05:40:06.643Z,77.32
2023-04-15T05:43:09.791Z,77.21
2023-04-15T05:46:11.425Z,78.50
2023-04-15T05:49:14.747Z,78.42
2023-04-15T05:52:22.083Z,77.83
2023-04-15T05:55:23.700Z,79.38
2023-04-15T05:58:25.280Z,79.25
2023-04-15T06:01:35.803Z,78.83
2023-04-15T06:04:56.268Z,81.13
2023-04-15T06:07:57.799Z,80.35
2023-04-15T06:11:01.640Z,78.24
2023-04-15T06:14:03.291Z,80.03
2023-04-15T06:20:20.408Z,81.73
2023-04-15T06:23:22.042Z,81.45
2023-04-15T06:26:23.664Z,81.32
2023-04-15T06:29:25.346Z,81.66
2023-04-15T06:32:27.022Z,81.31
2023-04-15T06:35:28.727Z,80.95
2023-04-15T06:38:33.833Z,79.92
2023-04-15T06:41:36.344Z,83.16
2023-04-15T06:45:04.373Z,85.04
2023-04-15T06:48:07.080Z,85.87
2023-04-15T06:51:08.657Z,82.28
2023-04-15T06:54:10.261Z,79.72
2023-04-15T06:57:11.860Z,80.06
2023-04-15T07:00:13.905Z,78.53
2023-04-15T07:03:15.717Z,78.37
2023-04-15T07:06:17.263Z,77.77
2023-04-15T07:09:18.769Z,78.87
2023-04-15T07:12:20.844Z,78.02
2023-04-15T07:15:23.563Z,77.66
2023-04-15T07:18:25.605Z,77.68
2023-04-15T07:24:50.245Z,78.51
2023-04-15T07:28:02.471Z,78.08
2023-04-15T07:31:08.063Z,78.52
2023-04-15T07:34:12.125Z,77.71
2023-04-15T07:37:13.987Z,75.52
2023-04-15T07:40:18.632Z,74.79
2023-04-15T07:43:21.307Z,73.07
2023-04-15T07:46:31.403Z,71.19
2023-04-15T07:49:32.953Z,69.50
2023-04-15T07:52:39.118Z,67.20
2023-04-15T07:58:56.164Z,64.67
2023-04-15T08:02:01.030Z,63.47
2023-04-15T08:05:04.383Z,61.63
2023-04-15T08:08:08.451Z,59.43
2023-04-15T08:11:12.137Z,61.09
2023-04-15T08:14:16.068Z,60.16
2023-04-15T08:17:17.763Z,57.46
2023-04-15T08:20:19.887Z,58.10
2023-04-15T08:23:21.488Z,56.53
2023-04-15T08:26:23.154Z,57.78
2023-04-15T08:29:24.705Z,60.14
2023-04-15T08:32:27.207Z,61.71
2023-04-15T08:35:31.977Z,60.21
2023-04-15T08:38:34.297Z,57.44
2023-04-15T08:42:11.962Z,56.01
2023-04-15T08:45:13.989Z,56.36
2023-04-15T08:48:22.793Z,56.02
2023-04-15T08:51:27.227Z,58.17
2023-04-15T08:54:29.268Z,59.40
2023-04-15T08:57:32.181Z,55.85
2023-04-15T09:00:37.678Z,59.00
2023-04-15T09:03:40.808Z,59.68
2023-04-15T09:06:44.994Z,56.10
2023-04-15T09:09:48.646Z,59.34
2023-04-15T09:12:50.321Z,58.81
2023-04-15T09:15:53.609Z,56.93
2023-04-15T09:19:27.748Z,56.96
2023-04-15T09:22:33.308Z,55.79
2023-04-15T09:25:50.565Z,57.35
2023-04-15T09:28:54.368Z,58.98
2023-04-15T09:31:56.204Z,55.57
2023-04-15T09:34:58.062Z,56.53
2023-04-15T09:38:12.833Z,60.23
2023-04-15T09:41:20.733Z,57.57
2023-04-15T09:44:27.122Z,56.70
2023-04-15T09:47:34.817Z,58.66
2023-04-15T09:50:41.236Z,54.93
2023-04-15T09:53:42.787Z,56.05
2023-04-15T09:56:50.380Z,56.13
2023-04-15T09:59:52.074Z,52.16
2023-04-15T10:03:19.093Z,50.51
2023-04-15T10:06:23.632Z,50.70
2023-04-15T10:09:25.167Z,52.99
2023-04-15T10:12:27.668Z,50.06
2023-04-15T10:15:34.034Z,49.34
2023-04-15T10:18:42.988Z,50.08
2023-04-15T10:21:50.253Z,57.28
2023-04-15T10:24:52.989Z,51.80
2023-04-15T10:27:56.496Z,51.87
2023-04-15T10:30:59.302Z,54.16
2023-04-15T10:34:13.724Z,52.71
2023-04-15T10:37:21.742Z,52.52
2023-04-15T10:40:37.748Z,54.50
2023-04-15T10:43:41.673Z,49.76
2023-04-15T10:46:45.370Z,51.65
2023-04-15T10:53:28.324Z,56.44
2023-04-15T10:56:39.492Z,53.85
2023-04-15T11:03:43.351Z,49.68
2023-04-15T11:06:45.791Z,50.04
2023-04-15T11:09:48.079Z,49.50
2023-04-15T11:13:11.505Z,50.49
2023-04-15T11:16:13.573Z,49.04
2023-04-15T11:22:30.708Z,43.20
2023-04-15T11:25:37.665Z,42.75
2023-04-15T11:28:41.839Z,45.31
2023-04-15T11:32:00.765Z,46.68
2023-04-15T11:35:02.368Z,47.18
2023-04-15T11:38:12.369Z,45.36
2023-04-15T11:41:13.930Z,44.45
2023-04-15T11:44:19.144Z,45.65
2023-04-15T11:47:30.638Z,42.44
2023-04-15T11:50:42.446Z,40.37
2023-04-15T11:53:57.813Z,43.18
2023-04-15T11:57:00.153Z,37.43
2023-04-15T12:00:01.870Z,42.12
2023-04-15T12:03:23.721Z,39.12
2023-04-15T12:06:27.868Z,36.15
2023-04-15T12:09:36.737Z,35.13
2023-04-15T12:12:41.038Z,34.56
2023-04-15T12:15:43.698Z,36.09
2023-04-15T12:18:56.121Z,36.01
2023-04-15T12:22:10.356Z,39.04
2023-04-15T12:25:12.246Z,35.46
2023-04-15T12:28:20.878Z,35.25
2023-04-15T12:31:23.832Z,36.33
2023-04-15T12:34:51.064Z,39.02
2023-04-15T12:38:18.047Z,35.08
2023-04-15T12:41:20.661Z,36.08
2023-04-15T12:44:34.465Z,34.33
2023-04-15T12:47:39.113Z,32.92
2023-04-15T12:50:44.250Z,32.68
2023-04-15T12:53:45.788Z,30.30
2023-04-15T12:56:48.965Z,31.82
2023-04-15T12:59:53.532Z,32.69
2023-04-15T13:02:55.123Z,30.73
2023-04-15T13:06:08.738Z,31.84
2023-04-15T13:09:10.813Z,33.68
2023-04-15T13:15:32.060Z,34.74
2023-04-15T13:22:08.799Z,34.08
2023-04-15T13:25:32.452Z,33.73
2023-04-15T13:28:34.566Z,35.97
2023-04-15T13:31:49.300Z,38.48
2023-04-15T13:35:16.310Z,38.79
2023-04-15T13:38:17.869Z,39.13
2023-04-15T13:41:21.135Z,35.58
2023-04-15T13:44:28.637Z,36.91
2023-04-15T13:47:32.707Z,36.44
2023-04-15T13:50:34.472Z,39.47
2023-04-15T13:53:51.567Z,38.22
2023-04-15T13:56:54.634Z,39.37
2023-04-15T13:59:56.345Z,39.00
2023-04-15T14:03:00.990Z,42.59
2023-04-15T14:06:02.690Z,41.36
2023-04-15T14:09:06.560Z,39.86
2023-04-15T14:12:15.473Z,41.65
2023-04-15T14:15:21.100Z,38.12
2023-04-15T14:18:26.584Z,40.72
2023-04-15T14:21:28.835Z,40.10
2023-04-15T14:24:30.431Z,39.83
2023-04-15T14:27:46.495Z,40.11
2023-04-15T14:30:48.088Z,41.39
2023-04-15T14:33:51.995Z,41.99
2023-04-15T14:36:56.454Z,41.10
2023-04-15T14:40:00.316Z,42.69
2023-04-15T14:43:07.956Z,42.89
2023-04-15T14:46:14.435Z,43.75
2023-04-15T14:49:22.880Z,44.87
2023-04-15T14:52:27.353Z,42.72
2023-04-15T14:55:37.931Z,44.60
2023-04-15T14:58:39.458Z,45.38
2023-04-15T15:01:41.189Z,44.26
2023-04-15T15:08:01.480Z,48.29
2023-04-15T15:11:03.114Z,46.51
2023-04-15T15:17:20.262Z,45.80
2023-04-15T15:20:49.810Z,42.85
2023-04-15T15:24:00.699Z,43.17
2023-04-15T15:27:02.950Z,46.11
2023-04-15T15:30:06.492Z,48.30
2023-04-15T15:33:10.668Z,49.11
2023-04-15T15:36:16.150Z,46.83
2023-04-15T15:39:24.949Z,45.27
2023-04-15T15:42:26.847Z,45.46
2023-04-15T15:45:35.994Z,45.89
2023-04-15T15:51:59.060Z,47.07
2023-04-15T15:55:03.904Z,47.49
2023-04-15T15:58:05.663Z,44.85
2023-04-15T16:01:10.467Z,47.43
2023-04-15T16:04:12.194Z,47.24
2023-04-15T16:07:15.420Z,48.96
2023-04-15T16:10:17.545Z,49.20
2023-04-15T16:13:19.124Z,47.85
2023-04-15T16:16:22.073Z,48.04
2023-04-15T16:19:30.792Z,46.77
2023-04-15T16:22:34.241Z,49.45
2023-04-15T16:25:35.770Z,47.33
2023-04-15T16:28:37.398Z,44.69
2023-04-15T16:31:40.035Z,41.33
2023-04-15T16:34:41.617Z,42.74
2023-04-15T16:37:58.285Z,44.67
2023-04-15T16:41:02.068Z,49.65
2023-04-15T16:44:03.760Z,47.97
2023-04-15T16:47:05.880Z,47.50
2023-04-15T16:50:18.340Z,47.28
2023-04-15T16:53:19.953Z,49.15
2023-04-15T16:56:22.139Z,49.13
2023-04-15T16:59:26.167Z,50.75
2023-04-15T17:02:31.344Z,49.57
2023-04-15T17:05:33.825Z,51.10
2023-04-15T17:08:41.304Z,50.78
2023-04-15T17:11:44.512Z,51.55
2023-04-15T17:14:46.168Z,52.27
2023-04-15T17:17:51.796Z,52.21
2023-04-15T17:21:12.265Z,52.18
2023-04-15T17:24:15.778Z,52.42
2023-04-15T17:27:19.696Z,52.32
2023-04-15T17:30:21.716Z,51.93
2023-04-15T17:34:00.534Z,51.57
2023-04-15T17:36:44.901Z,52.00
2023-04-15T17:39:49.281Z,51.27
2023-04-15T17:42:51.746Z,50.40
2023-04-15T17:45:59.545Z,52.69
2023-04-15T17:49:03.503Z,51.87
2023-04-15T17:52:05.385Z,52.21
2023-04-15T17:55:08.171Z,51.18
2023-04-15T17:58:09.865Z,51.97
2023-04-15T18:01:13.671Z,54.59
2023-04-15T18:04:15.812Z,56.85
2023-04-15T18:07:17.695Z,58.33
2023-04-15T18:10:20.668Z,59.88
2023-04-15T18:13:24.710Z,60.27
2023-04-15T18:16:31.936Z,60.90
2023-04-15T18:19:33.766Z,62.13
2023-04-15T18:22:35.619Z,63.02
2023-04-15T18:25:38.326Z,63.02
2023-04-15T18:28:39.960Z,64.42
2023-04-15T18:31:42.083Z,64.66
2023-04-15T18:34:46.472Z,65.34
2023-04-15T18:41:05.479Z,67.36
2023-04-15T18:44:14.578Z,67.93
2023-04-15T18:47:16.145Z,69.32
2023-04-15T18:50:19.972Z,71.43
2023-04-15T18:53:22.640Z,73.00
2023-04-15T18:56:26.399Z,74.76
2023-04-15T18:59:30.195Z,75.39
2023-04-15T19:02:32.888Z,75.00
2023-04-15T19:05:35.155Z,75.97
2023-04-15T19:08:36.700Z,75.46
2023-04-15T19:11:39.057Z,76.40
2023-04-15T19:14:41.353Z,76.96
2023-04-15T19:17:48.847Z,79.34
2023-04-15T19:20:52.203Z,80.01
2023-04-15T19:23:58.718Z,82.50
2023-04-15T19:27:00.201Z,83.74
2023-04-15T19:30:03.335Z,83.81
2023-04-15T19:33:04.997Z,84.79
2023-04-15T19:36:07.554Z,85.02
2023-04-15T19:39:09.821Z,85.54
2023-04-15T19:42:11.354Z,86.83
2023-04-15T19:45:14.910Z,88.17
2023-04-15T19:48:16.875Z,89.44
2023-04-15T19:51:18.514Z,90.46
2023-04-15T19:54:20.113Z,90.76
2023-04-15T19:57:21.606Z,91.97
2023-04-15T20:00:23.230Z,93.59
2023-04-15T20:06:40.564Z,96.91
2023-04-15T20:09:46.361Z,97.32
2023-04-15T20:12:55.131Z,98.63
2023-04-15T20:15:56.928Z,98.18
2023-04-15T20:19:07.399Z,99.68
2023-04-15T20:22:10.842Z,99.88
2023-04-15T20:25:19.131Z,100.00
2023-04-15T20:28:29.307Z,100.00
2023-04-15T20:31:30.904Z,100.00
2023-04-15T20:34:32.684Z,100.00
2023-04-15T20:37:34.754Z,100.00
2023-04-15T20:40:36.505Z,100.00
2023-04-15T20:43:38.050Z,100.00
2023-04-15T20:46:39.606Z,100.00
2023-04-15T20:49:47.491Z,100.00
2023-04-15T20:52:54.253Z,100.00
2023-04-15T20:56:02.099Z,100.00
2023-04-15T21:02:23.660Z,100.00
2023-04-15T21:05:29.030Z,100.00
2023-04-15T21:08:31.560Z,100.00
2023-04-15T21:11:53.142Z,100.00
2023-04-15T21:15:03.711Z,100.00
2023-04-15T21:18:30.561Z,100.00
2023-04-15T21:21:35.488Z,100.00
2023-04-15T21:24:37.953Z,100.00
2023-04-15T21:27:39.596Z,100.00
2023-04-15T21:30:42.985Z,100.00
2023-04-15T21:33:46.362Z,100.00
2023-04-15T21:36:47.992Z,100.00
2023-04-15T21:39:49.684Z,100.00
2023-04-15T21:42:52.611Z,100.00
2023-04-15T21:46:22.385Z,100.00
2023-04-15T21:49:20.285Z,100.00
2023-04-15T21:52:24.390Z,100.00
2023-04-15T21:55:25.966Z,100.00
2023-04-15T21:58:30.447Z,100.00
2023-04-15T22:01:32.013Z,100.00
2023-04-15T22:04:33.546Z,100.00
2023-04-15T22:07:36.466Z,100.00
2023-04-15T22:10:38.945Z,100.00
2023-04-15T22:13:40.915Z,100.00
2023-04-15T22:20:03.761Z,100.00
2023-04-15T22:23:08.386Z,100.00
2023-04-15T22:26:10.103Z,100.00
2023-04-15T22:29:14.851Z,100.00
2023-04-15T22:32:17.094Z,100.00
2023-04-15T22:35:21.665Z,100.00
2023-04-15T22:38:24.761Z,100.00
2023-04-15T22:41:26.411Z,100.00
2023-04-15T22:44:27.938Z,100.00
2023-04-15T22:47:29.521Z,100.00
2023-04-15T22:50:37.945Z,100.00
2023-04-15T22:53:39.542Z,100.00
2023-04-15T22:56:41.053Z,100.00
2023-04-15T22:59:42.605Z,100.00
2023-04-15T23:02:44.189Z,100.00
2023-04-15T23:05:46.147Z,100.00
2023-04-15T23:08:47.881Z,100.00
2023-04-15T23:11:49.547Z,100.00
2023-04-15T23:14:51.144Z,100.00
2023-04-15T23:17:58.435Z,100.00
2023-04-15T23:21:00.048Z,100.00
2023-04-15T23:24:01.626Z,100.00
2023-04-15T23:27:06.301Z,100.00
2023-04-15T23:30:08.268Z,100.00
2023-04-15T23:33:12.822Z,100.00
2023-04-15T23:36:14.383Z,100.00
2023-04-15T23:39:18.279Z,100.00
2023-04-15T23:42:19.812Z,100.00
2023-04-15T23:45:21.374Z,100.00
2023-04-15T23:48:23.716Z,100.00
2023-04-15T23:51:34.239Z,100.00
2023-04-15T23:54:37.213Z,100.00
2023-04-15T23:57:41.499Z,100.00
